Time;durP1;ratioP1;P1;durP2;ratioP2;P2;SDS_P1;SDS_P2;PMS_P1;PMS_P2;Temp;Humidity;BMP_temperature;BMP_pressure;BME280_temperature;BME280_humidity;BME280_pressure;Samples;Min_cycle;Max_cycle;Signal;HPM_P1;HPM_P2
2022/08/01 00:02:11;;;;;;;6.22;1.80;;;;;;;-145.69;100.00;71195.47;5072476;28;20203;-79
2022/08/01 00:04:37;;;;;;;3.47;1.83;;;;;;;-145.69;100.00;71203.41;5073138;28;20241;-79
2022/08/01 00:07:04;;;;;;;3.65;1.63;;;;;;;-145.69;100.00;71211.38;5072831;28;20632;-79
2022/08/01 00:09:31;;;;;;;3.60;1.80;;;;;;;-145.69;100.00;71193.47;5072889;28;20238;-79
2022/08/01 00:11:57;;;;;;;3.53;1.90;;;;;;;-145.69;100.00;71187.50;5073101;28;20198;-79
2022/08/01 00:14:25;;;;;;;4.38;1.80;;;;;;;-145.69;100.00;71195.47;5073161;28;20203;-79
2022/08/01 00:16:51;;;;;;;4.68;1.88;;;;;;;-145.69;100.00;71183.50;5072879;28;20494;-79
2022/08/01 00:19:18;;;;;;;4.55;2.22;;;;;;;-145.69;100.00;71199.44;5072763;28;20203;-79
2022/08/01 00:21:44;;;;;;;5.55;1.75;;;;;;;-145.69;100.00;71225.31;5072753;28;20198;-79
2022/08/01 00:24:10;;;;;;;2.63;1.85;;;;;;;-145.69;100.00;71221.31;5072202;28;20219;-80
2022/08/01 00:26:37;;;;;;;2.53;1.83;;;;;;;-145.69;100.00;71245.19;5072745;28;20209;-79
2022/08/01 00:29:03;;;;;;;2.72;1.58;;;;;;;-145.69;100.00;71259.13;5073131;28;20206;-79
2022/08/01 00:31:31;;;;;;;3.47;1.60;;;;;;;-145.69;100.00;71288.97;5072985;28;20203;-80
2022/08/01 00:33:57;;;;;;;5.32;2.03;;;;;;;-145.69;100.00;71292.94;5072583;28;20206;-79
2022/08/01 00:36:24;;;;;;;6.72;2.55;;;;;;;-145.69;100.00;71292.94;5072770;28;20199;-79
2022/08/01 00:38:50;;;;;;;4.57;2.15;;;;;;;-145.69;100.00;71310.84;5072679;28;20194;-80
2022/08/01 00:41:17;;;;;;;3.15;1.83;;;;;;;-145.69;100.00;71302.91;5072544;28;20661;-79
2022/08/01 00:43:44;;;;;;;4.22;2.15;;;;;;;-145.69;100.00;71294.94;5072604;28;20199;-79
2022/08/01 00:46:10;;;;;;;3.40;1.85;;;;;;;-145.69;100.00;71298.94;5072401;28;20226;-79
2022/08/01 00:48:38;;;;;;;4.15;2.70;;;;;;;-145.69;100.00;71302.91;5072828;28;20210;-79
2022/08/01 00:51:05;;;;;;;5.82;2.30;;;;;;;-145.69;100.00;71283.00;5052053;28;20230;-80
2022/08/01 00:53:32;;;;;;;4.60;2.08;;;;;;;-145.69;100.00;71275.03;5052631;28;20681;-79
2022/08/01 00:55:58;;;;;;;2.75;1.98;;;;;;;-145.69;100.00;71265.09;5052134;28;20249;-79
2022/08/01 00:58:25;;;;;;;3.40;1.75;;;;;;;-145.69;100.00;71288.97;5052616;28;20203;-79
2022/08/01 01:00:51;;;;;;;4.22;1.95;;;;;;;-145.69;100.00;71290.97;5071781;28;20207;-79
2022/08/01 01:03:18;;;;;;;3.00;2.25;;;;;;;-145.69;100.00;71314.84;5090053;28;20201;-79
2022/08/01 01:06:01;;;;;;;5.40;2.10;;;;;;;-145.69;100.00;71332.75;5091610;28;20498;-79
2022/08/01 01:08:36;;;;;;;3.05;2.30;;;;;;;-145.69;100.00;71352.66;5092256;28;20202;-79
2022/08/01 01:11:09;;;;;;;3.37;2.07;;;;;;;-145.69;100.00;71366.56;5092699;28;20258;-79
2022/08/01 01:13:41;;;;;;;3.40;2.03;;;;;;;-145.69;100.00;71378.50;5094891;28;20212;-79
2022/08/01 01:16:14;;;;;;;5.85;2.10;;;;;;;-145.69;100.00;71384.47;5096361;28;20271;-79
2022/08/01 01:18:45;;;;;;;4.80;1.90;;;;;;;-145.69;100.00;71378.50;5072650;28;20199;-79
2022/08/01 01:21:40;;;;;;;4.73;2.40;;;;;;;-145.69;100.00;71372.53;5061493;28;20199;-79
2022/08/01 01:24:28;;;;;;;2.97;2.07;;;;;;;-145.69;100.00;71378.50;5070905;28;20677;-79
2022/08/01 01:27:02;;;;;;;3.63;2.53;;;;;;;-145.69;100.00;71382.50;5075690;28;20199;-79
2022/08/01 01:29:36;;;;;;;3.30;2.30;;;;;;;-145.69;100.00;71370.56;5075759;28;20194;-79
2022/08/01 01:32:06;;;;;;;3.45;2.50;;;;;;;-145.69;100.00;71362.59;5074862;28;20442;-79
2022/08/01 01:34:38;;;;;;;6.40;2.47;;;;;;;-145.69;100.00;71386.47;5075770;28;20205;-79
2022/08/01 01:37:10;;;;;;;3.30;2.08;;;;;;;-145.69;100.00;71380.50;5075737;28;20203;-79
2022/08/01 01:39:39;;;;;;;3.00;2.38;;;;;;;-145.69;100.00;71386.47;5075669;28;20195;-79
2022/08/01 01:42:07;;;;;;;3.50;2.47;;;;;;;-145.69;100.00;71398.41;5074354;28;20913;-79
2022/08/01 01:44:38;;;;;;;5.68;2.42;;;;;;;-145.69;100.00;71412.34;5075208;28;20217;-79
2022/08/01 01:47:05;;;;;;;5.78;2.33;;;;;;;-145.69;100.00;71396.44;5075257;28;20202;-79
2022/08/01 01:49:33;;;;;;;4.93;2.30;;;;;;;-145.69;100.00;71394.44;5067862;28;20238;-78
2022/08/01 01:52:02;;;;;;;4.25;2.72;;;;;;;-145.69;100.00;71394.44;5075517;28;20198;-78
2022/08/01 01:54:32;;;;;;;3.77;2.40;;;;;;;-145.69;100.00;71406.38;5075262;28;20688;-80
2022/08/01 01:57:01;;;;;;;4.97;2.73;;;;;;;-145.69;100.00;71410.34;5075149;28;20657;-79
2022/08/01 01:59:31;;;;;;;5.13;2.43;;;;;;;-145.69;100.00;71418.31;5075117;28;20203;-79
2022/08/01 02:02:02;;;;;;;4.17;2.73;;;;;;;-145.69;100.00;71394.44;5075336;28;20199;-79
2022/08/01 02:04:30;;;;;;;6.17;2.90;;;;;;;-145.69;100.00;71380.50;5075244;28;20203;-79
2022/08/01 02:06:58;;;;;;;2.50;2.10;;;;;;;-145.69;100.00;71388.47;5075040;28;20203;-79
2022/08/01 02:09:28;;;;;;;4.50;2.70;;;;;;;-145.69;100.00;71402.41;5075063;28;20203;-80
2022/08/01 02:11:55;;;;;;;4.47;2.80;;;;;;;-145.69;100.00;71402.41;5075172;28;20210;-79
2022/08/01 02:14:24;;;;;;;4.50;2.50;;;;;;;-145.69;100.00;71410.34;5075065;28;20211;-79
2022/08/01 02:16:51;;;;;;;2.63;2.30;;;;;;;-145.69;100.00;71390.47;5074974;28;20278;-79
2022/08/01 02:19:20;;;;;;;4.93;2.60;;;;;;;-145.69;100.00;71370.56;5075311;28;20202;-79
2022/08/01 02:21:50;;;;;;;5.30;2.97;;;;;;;-145.69;100.00;71390.47;5074809;28;20206;-79
2022/08/01 02:24:21;;;;;;;4.23;2.90;;;;;;;-145.69;100.00;71394.44;5073903;28;20657;-79
2022/08/01 02:26:51;;;;;;;4.57;2.87;;;;;;;-145.69;100.00;71386.47;5074631;28;20226;-79
2022/08/01 02:29:33;;;;;;;3.40;2.50;;;;;;;-145.69;100.00;71370.56;5074767;28;20203;-79
2022/08/01 02:32:03;;;;;;;4.77;2.50;;;;;;;-145.69;100.00;71382.50;5074754;28;20207;-79
2022/08/01 02:34:32;;;;;;;4.65;2.50;;;;;;;-145.69;100.00;71376.53;5074258;28;20206;-79
2022/08/01 02:37:01;;;;;;;3.53;2.70;;;;;;;-145.69;100.00;71366.56;5074668;28;20234;-79
2022/08/01 02:39:29;;;;;;;3.33;2.30;;;;;;;-145.69;100.00;71368.56;5074626;28;20202;-79
2022/08/01 02:42:00;;;;;;;4.63;2.70;;;;;;;-145.69;100.00;71378.50;5074582;28;20582;-79
2022/08/01 02:44:31;;;;;;;4.50;2.40;;;;;;;-145.69;100.00;71400.41;5074592;28;20202;-79
2022/08/01 02:47:02;;;;;;;3.47;2.43;;;;;;;-145.69;100.00;71414.34;5074227;28;20257;-79
2022/08/01 02:49:33;;;;;;;3.30;2.40;;;;;;;-145.69;100.00;71424.28;5074033;28;20229;-79
2022/08/01 02:52:04;;;;;;;5.78;2.67;;;;;;;-145.69;100.00;71430.25;5074277;28;20719;-79
2022/08/01 02:54:32;;;;;;;3.20;2.57;;;;;;;-145.69;100.00;71440.19;5074555;28;20210;-79
2022/08/01 02:57:00;;;;;;;3.90;3.00;;;;;;;-145.69;100.00;71434.22;5074084;28;20203;-79
2022/08/01 02:59:29;;;;;;;6.80;3.17;;;;;;;-145.69;100.00;71422.28;5073798;28;20562;-79
2022/08/01 03:01:57;;;;;;;3.43;2.57;;;;;;;-145.69;100.00;71426.28;5074022;28;20625;-79
2022/08/01 03:04:25;;;;;;;4.97;2.97;;;;;;;-145.69;100.00;71430.25;5074041;28;20203;-79
2022/08/01 03:06:58;;;;;;;3.78;2.90;;;;;;;-145.69;100.00;71438.22;5073783;28;20693;-79
2022/08/01 03:09:27;;;;;;;3.70;2.90;;;;;;;-145.69;100.00;71450.16;5073812;28;20202;-79
2022/08/01 03:11:56;;;;;;;7.47;2.90;;;;;;;-145.69;100.00;71426.28;5073872;28;20650;-79
2022/08/01 03:14:24;;;;;;;5.60;3.07;;;;;;;-145.69;100.00;71434.22;5073761;28;20206;-79
2022/08/01 03:16:53;;;;;;;5.03;2.90;;;;;;;-145.69;100.00;71454.13;5073853;28;20198;-79
2022/08/01 03:19:23;;;;;;;4.53;3.50;;;;;;;-145.69;100.00;71432.25;5073996;28;20205;-79
2022/08/01 03:21:51;;;;;;;3.60;2.70;;;;;;;-145.69;100.00;71444.19;5073599;28;20213;-79
2022/08/01 03:24:20;;;;;;;4.30;3.30;;;;;;;-145.69;100.00;71430.25;5074112;28;20558;-79
2022/08/01 03:26:48;;;;;;;4.00;2.80;;;;;;;-145.69;100.00;71424.28;5073455;28;20233;-79
2022/08/01 03:29:17;;;;;;;3.90;2.97;;;;;;;-145.69;100.00;71434.22;5073094;28;20484;-79
2022/08/01 03:31:46;;;;;;;4.20;3.13;;;;;;;-145.69;100.00;71416.31;5073415;28;20198;-79
2022/08/01 03:34:13;;;;;;;3.63;3.00;;;;;;;-145.69;100.00;71406.38;5073349;28;20281;-79
2022/08/01 03:36:46;;;;;;;3.40;2.92;;;;;;;-145.69;100.00;71408.38;5073206;28;20661;-79
2022/08/01 03:39:14;;;;;;;6.63;3.65;;;;;;;-145.69;100.00;71406.38;5073276;28;20202;-79
2022/08/01 03:41:49;;;;;;;4.63;3.00;;;;;;;-145.69;100.00;71404.38;5073448;28;20199;-80
2022/08/01 03:44:18;;;;;;;5.80;3.92;;;;;;;-145.69;100.00;71378.50;5073140;28;20213;-79
2022/08/01 03:46:48;;;;;;;5.53;3.30;;;;;;;-145.69;100.00;71376.53;5073151;28;20709;-79
2022/08/01 03:49:19;;;;;;;5.22;2.85;;;;;;;-145.69;100.00;71386.47;5072908;28;20222;-80
2022/08/01 03:51:47;;;;;;;6.88;3.33;;;;;;;-145.69;100.00;71386.47;5073133;28;20233;-79
2022/08/01 03:54:16;;;;;;;6.82;3.17;;;;;;;-145.69;100.00;71380.50;5073276;28;20208;-80
2022/08/01 03:56:47;;;;;;;6.37;3.80;;;;;;;-145.69;100.00;71382.50;5073280;28;20582;-79
2022/08/01 03:59:15;;;;;;;6.82;3.60;;;;;;;-145.69;100.00;71368.56;5057192;28;20195;-79
2022/08/01 04:01:42;;;;;;;5.35;3.40;;;;;;;-145.69;100.00;71370.56;5053093;28;20203;-79
2022/08/01 04:04:08;;;;;;;6.65;3.53;;;;;;;-145.69;100.00;71358.63;5052900;28;20203;-79
2022/08/01 04:06:38;;;;;;;4.72;3.70;;;;;;;-145.69;100.00;71372.53;5053075;28;20235;-79
2022/08/01 04:09:05;;;;;;;6.53;3.70;;;;;;;-145.69;100.00;71374.53;5053100;28;20203;-79
2022/08/01 04:11:32;;;;;;;7.70;3.72;;;;;;;-145.69;100.00;71378.50;5052920;28;20210;-79
2022/08/01 04:14:00;;;;;;;5.93;3.30;;;;;;;-145.69;100.00;71384.47;5052997;28;20218;-80
2022/08/01 04:16:26;;;;;;;4.40;3.25;;;;;;;-145.69;100.00;71398.41;5066340;28;20203;-79
2022/08/01 04:18:53;;;;;;;4.43;3.13;;;;;;;-145.69;100.00;71390.47;5083105;28;20202;-80
2022/08/01 04:21:24;;;;;;;11.50;3.50;;;;;;;-145.69;100.00;71394.44;5093214;28;20213;-79
2022/08/01 04:23:53;;;;;;;6.97;3.40;;;;;;;-145.69;100.00;71394.44;5093160;28;20236;-79
2022/08/01 04:26:20;;;;;;;5.30;3.53;;;;;;;-145.69;100.00;71392.44;5092992;28;20233;-80
2022/08/01 04:28:50;;;;;;;6.30;3.95;;;;;;;-145.69;100.00;71378.50;5093522;28;20205;-79
2022/08/01 04:31:20;;;;;;;4.50;3.40;;;;;;;-145.69;100.00;71376.53;5092921;28;20288;-79
2022/08/01 04:33:50;;;;;;;5.30;3.50;;;;;;;-145.69;100.00;71394.44;5093108;28;20198;-79
2022/08/01 04:36:20;;;;;;;6.72;3.45;;;;;;;-145.69;100.00;71426.28;5092900;28;20244;-79
2022/08/01 04:38:51;;;;;;;4.30;3.22;;;;;;;-145.69;100.00;71444.19;5092939;28;20202;-80
2022/08/01 04:41:19;;;;;;;5.82;3.40;;;;;;;-145.69;100.00;71466.06;5092166;28;20440;-79
2022/08/01 04:43:46;;;;;;;4.23;3.00;;;;;;;-145.69;100.00;71474.03;5092741;28;20202;-79
2022/08/01 04:46:14;;;;;;;4.30;3.20;;;;;;;-145.69;100.00;71478.00;5092900;28;20623;-79
2022/08/01 04:48:42;;;;;;;6.50;3.90;;;;;;;-145.69;100.00;71474.03;5094493;28;20201;-79
2022/08/01 04:51:14;;;;;;;5.30;3.90;;;;;;;-145.69;100.00;71474.03;5076313;28;20704;-79
2022/08/01 04:53:42;;;;;;;8.13;3.57;;;;;;;-145.69;100.00;71464.09;5076343;28;20206;-79
2022/08/01 04:56:12;;;;;;;4.87;3.60;;;;;;;-145.69;100.00;71466.06;5076409;28;20203;-79
2022/08/01 04:58:39;;;;;;;6.90;3.63;;;;;;;-145.69;100.00;71460.09;5076534;28;20203;-79
2022/08/01 05:01:06;;;;;;;6.77;4.23;;;;;;;-145.69;100.00;71426.28;5076375;28;20202;-80
2022/08/01 05:03:32;;;;;;;12.40;3.90;;;;;;;-145.69;100.00;71432.25;5076371;28;20202;-80
2022/08/01 05:06:00;;;;;;;4.67;3.33;;;;;;;-145.69;100.00;71438.22;5076452;28;20227;-79
2022/08/01 05:08:27;;;;;;;7.83;3.90;;;;;;;-145.69;100.00;71438.22;5076149;28;20195;-80
2022/08/01 05:10:53;;;;;;;7.67;3.40;;;;;;;-145.69;100.00;71430.25;5076011;28;20653;-80
2022/08/01 05:13:20;;;;;;;6.23;3.90;;;;;;;-145.69;100.00;71420.31;5076309;28;20561;-79
2022/08/01 05:15:46;;;;;;;5.78;4.22;;;;;;;-145.69;100.00;71396.44;5076109;28;20203;-79
2022/08/01 05:18:13;;;;;;;8.32;4.35;;;;;;;-145.69;100.00;71364.59;5076121;28;20206;-79
2022/08/01 05:20:39;;;;;;;7.53;4.68;;;;;;;-145.69;100.00;71344.69;5076023;28;20202;-79
2022/08/01 05:23:07;;;;;;;8.55;4.00;;;;;;;-145.69;100.00;71326.78;5075923;28;20203;-79
2022/08/01 05:25:34;;;;;;;7.47;4.13;;;;;;;-145.69;100.00;71322.81;5075723;28;20653;-79
2022/08/01 05:28:00;;;;;;;5.72;4.03;;;;;;;-145.69;100.00;71304.91;5075978;28;20202;-79
2022/08/01 05:30:26;;;;;;;5.32;3.80;;;;;;;-145.69;100.00;71294.94;5076042;28;20206;-80
2022/08/01 05:32:53;;;;;;;5.35;4.03;;;;;;;-145.69;100.00;71281.00;5075651;28;20667;-79
2022/08/01 05:35:19;;;;;;;6.60;3.40;;;;;;;-145.69;100.00;71277.03;5075771;28;20245;-80
2022/08/01 05:37:46;;;;;;;9.30;3.70;;;;;;;-145.69;100.00;71257.13;5075669;28;20203;-79
2022/08/01 05:40:14;;;;;;;7.93;3.63;;;;;;;-145.69;100.00;71233.25;5075748;28;20658;-79
2022/08/01 05:42:40;;;;;;;6.47;3.73;;;;;;;-145.69;100.00;71215.34;5074941;28;20438;-79
2022/08/01 05:45:07;;;;;;;5.40;3.45;;;;;;;-145.69;100.00;71199.44;5075486;28;20206;-79
2022/08/01 05:47:33;;;;;;;6.78;3.70;;;;;;;-145.69;100.00;71167.59;5075426;28;20593;-79
2022/08/01 05:50:00;;;;;;;6.25;3.65;;;;;;;-145.69;100.00;71129.78;5075209;28;20229;-79
2022/08/01 05:52:26;;;;;;;5.68;3.63;;;;;;;-145.69;100.00;71080.06;5074791;28;20441;-79
2022/08/01 05:54:53;;;;;;;5.93;3.25;;;;;;;-145.69;100.00;71052.19;5075657;28;20210;-79
2022/08/01 05:57:20;;;;;;;4.93;3.30;;;;;;;-145.69;100.00;71040.25;5075541;28;20206;-79
2022/08/01 05:59:47;;;;;;;7.05;2.70;;;;;;;-145.69;100.00;71030.31;5074215;28;20203;-80
2022/08/01 06:02:13;;;;;;;5.47;2.90;;;;;;;-145.69;100.00;71016.38;5074751;28;20205;-80
2022/08/01 06:04:40;;;;;;;5.32;2.80;;;;;;;-145.69;100.00;71000.47;5075191;28;20213;-80
2022/08/01 06:07:06;;;;;;;5.15;2.75;;;;;;;-145.69;100.00;70992.50;5073318;28;20611;-79
2022/08/01 06:09:33;;;;;;;2.60;2.35;;;;;;;-145.69;100.00;70984.53;5056134;28;20199;-78
2022/08/01 06:11:59;;;;;;;3.17;2.30;;;;;;;-145.69;100.00;70968.63;5055213;28;20200;-79
2022/08/01 06:14:27;;;;;;;2.80;2.20;;;;;;;-145.69;100.00;70952.72;5055167;28;20203;-80
2022/08/01 06:16:53;;;;;;;4.53;2.10;;;;;;;-145.69;100.00;70920.88;5071751;28;20195;-80
2022/08/01 06:19:20;;;;;;;2.33;1.80;;;;;;;-145.69;100.00;70885.06;5075001;28;20210;-80
2022/08/01 06:21:46;;;;;;;2.45;1.98;;;;;;;-145.69;99.14;70865.16;5074767;28;20210;-80
2022/08/01 06:24:13;;;;;;;1.83;1.73;;;;;;;-145.69;99.97;70845.28;5074974;28;20198;-79
2022/08/01 06:26:39;;;;;;;2.15;1.95;;;;;;;-145.69;97.91;70817.41;5074811;28;20226;-79
2022/08/01 06:29:06;;;;;;;4.10;1.90;;;;;;;-145.69;93.29;70751.75;5073798;28;20826;-80
2022/08/01 06:31:34;;;;;;;3.40;1.50;;;;;;;-145.69;89.67;70708.00;5074528;28;20538;-79
2022/08/01 06:34:00;;;;;;;3.83;1.70;;;;;;;-145.69;88.16;70664.22;5074585;28;20657;-79
2022/08/01 06:36:27;;;;;;;1.45;1.23;;;;;;;-145.69;82.53;70606.53;5074426;28;20622;-80
2022/08/01 06:38:54;;;;;;;2.78;1.60;;;;;;;-145.69;83.31;70580.66;5074617;28;20195;-79
2022/08/01 06:41:21;;;;;;;1.83;1.30;;;;;;;-145.69;82.11;70574.69;5074629;28;20203;-79
2022/08/01 06:43:47;;;;;;;1.90;1.30;;;;;;;-145.69;78.77;70574.69;5074485;28;20210;-79
2022/08/01 06:46:14;;;;;;;4.25;1.58;;;;;;;-145.69;78.58;70576.69;5074483;28;20245;-79
2022/08/01 06:48:42;;;;;;;3.13;1.45;;;;;;;-145.69;79.09;70564.75;5074125;28;20198;-79
2022/08/01 06:51:08;;;;;;;2.50;1.50;;;;;;;-145.69;78.39;70558.78;5074228;28;20300;-79
2022/08/01 06:53:35;;;;;;;1.95;1.27;;;;;;;-145.69;83.08;70546.84;5074397;28;20563;-79
2022/08/01 06:56:02;;;;;;;1.77;1.23;;;;;;;-145.69;78.04;70538.88;5074285;28;20657;-80
2022/08/01 06:58:28;;;;;;;4.60;1.50;;;;;;;-145.69;80.01;70544.84;5074219;28;20206;-80
2022/08/01 07:00:55;;;;;;;6.35;1.67;;;;;;;-145.69;79.49;70530.94;5073884;28;20194;-79
2022/08/01 07:03:21;;;;;;;2.80;1.58;;;;;;;-145.69;75.37;70526.94;5073897;28;20210;-79
2022/08/01 07:05:49;;;;;;;3.65;1.73;;;;;;;-145.69;77.71;70524.97;5074171;28;20202;-79
2022/08/01 07:08:15;;;;;;;4.32;1.65;;;;;;;-145.69;83.46;70522.97;5074045;28;20234;-79
2022/08/01 07:10:43;;;;;;;3.85;2.20;;;;;;;-145.69;78.03;70515.00;5073192;28;20665;-79
2022/08/01 07:13:09;;;;;;;3.50;2.17;;;;;;;-145.69;75.54;70503.06;5073907;28;20195;-79
2022/08/01 07:15:35;;;;;;;3.45;2.35;;;;;;;-145.69;75.07;70483.19;5073337;28;20684;-79
2022/08/01 07:18:03;;;;;;;2.60;2.03;;;;;;;-145.69;77.74;70475.22;5073270;28;20218;-79
2022/08/01 07:20:30;;;;;;;4.70;2.15;;;;;;;-145.69;74.36;70463.28;5073891;28;20224;-79
2022/08/01 07:22:58;;;;;;;3.83;2.20;;;;;;;-145.69;73.28;70463.28;5073626;28;20202;-80
2022/08/01 07:25:24;;;;;;;4.75;2.60;;;;;;;-145.69;72.65;70455.34;5073502;28;20199;-80
2022/08/01 07:27:51;;;;;;;3.03;2.47;;;;;;;-145.69;76.16;70503.06;5073503;28;20227;-80
2022/08/01 07:30:17;;;;;;;3.85;2.67;;;;;;;-145.69;81.72;70463.28;5073226;28;20438;-79
2022/08/01 07:32:43;;;;;;;3.58;2.53;;;;;;;-145.69;73.96;70463.28;5073432;28;20557;-79
2022/08/01 07:35:10;;;;;;;3.08;2.60;;;;;;;-145.69;72.90;70467.28;5076499;28;20676;-80
2022/08/01 07:37:37;;;;;;;4.68;2.20;;;;;;;-145.69;74.32;70439.41;5093902;28;20201;-79
2022/08/01 07:40:06;;;;;;;4.63;2.70;;;;;;;-145.69;73.01;70459.31;5093431;28;20205;-80
2022/08/01 07:42:32;;;;;;;4.07;2.30;;;;;;;-145.69;71.52;70449.38;5093629;28;20636;-80
2022/08/01 07:44:59;;;;;;;4.05;2.67;;;;;;;-145.69;72.07;70459.31;5093520;28;20202;-80
2022/08/01 07:47:27;;;;;;;5.50;2.47;;;;;;;-145.69;71.72;70429.47;5093542;28;20233;-80
2022/08/01 07:50:00;;;;;;;5.25;2.95;;;;;;;-145.69;71.37;70483.19;5082606;28;20750;-81
2022/08/01 07:52:27;;;;;;;4.35;2.80;;;;;;;-145.69;72.68;70507.06;5073158;28;20233;-81
2022/08/01 07:54:54;;;;;;;3.95;2.30;;;;;;;-145.69;71.99;70489.16;5073221;28;20230;-81
2022/08/01 07:57:22;;;;;;;5.93;2.72;;;;;;;-145.69;74.36;70431.47;5072825;28;20195;-82
2022/08/01 07:59:49;;;;;;;3.75;2.60;;;;;;;-145.69;73.37;70415.53;5072837;28;20199;-79
2022/08/01 08:02:15;;;;;;;5.45;3.20;;;;;;;-145.69;72.83;70339.94;5072737;28;20191;-82
2022/08/01 08:04:42;;;;;;;3.97;2.50;;;;;;;-145.69;66.21;70403.59;5073190;28;20203;-81
2022/08/01 08:07:08;;;;;;;6.30;2.60;;;;;;;-145.69;68.17;70407.59;5072237;28;20222;-81
2022/08/01 08:09:35;;;;;;;7.60;2.70;;;;;;;-145.69;69.45;70395.66;5056040;28;20206;-83
2022/08/01 08:12:01;;;;;;;3.70;2.45;;;;;;;-145.69;66.10;70383.72;5053216;28;20203;-81
2022/08/01 08:14:29;;;;;;;3.88;2.88;;;;;;;-145.69;65.67;70367.81;5053047;28;20203;-81
2022/08/01 08:16:56;;;;;;;4.35;2.70;;;;;;;-145.69;67.29;70337.97;5070474;28;20203;-79
2022/08/01 08:19:22;;;;;;;3.90;2.50;;;;;;;-145.69;63.79;70316.06;5072681;28;20199;-81
2022/08/01 08:21:48;;;;;;;3.35;2.35;;;;;;;-145.69;64.85;70345.91;5052463;28;20204;-81
2022/08/01 08:24:21;;;;;;;3.35;2.58;;;;;;;-145.69;67.26;70351.88;5052442;28;20693;-81
2022/08/01 08:26:48;;;;;;;3.38;2.75;;;;;;;-145.69;65.31;70359.84;5052533;28;20747;-82
2022/08/01 08:29:15;;;;;;;3.25;2.95;;;;;;;-145.69;66.21;70332.00;5052912;28;20208;-81
2022/08/01 08:31:43;;;;;;;3.22;2.72;;;;;;;-145.69;64.76;70320.06;5052501;28;20206;-80
2022/08/01 08:34:09;;;;;;;5.45;2.72;;;;;;;-145.69;64.69;70363.81;5052678;28;20203;-88
2022/08/01 08:36:36;;;;;;;5.90;2.75;;;;;;;-145.69;66.95;70407.59;5052612;28;20212;-80
2022/08/01 08:39:02;;;;;;;5.00;2.63;;;;;;;-145.69;66.84;70407.59;5068007;28;20195;-81
2022/08/01 08:41:30;;;;;;;4.63;2.70;;;;;;;-145.69;68.64;70375.75;5072593;28;20202;-80
2022/08/01 08:43:58;;;;;;;3.83;2.45;;;;;;;-145.69;65.33;70351.88;5072798;28;20226;-80
2022/08/01 08:46:27;;;;;;;6.93;2.47;;;;;;;-145.69;65.98;70274.31;5072478;28;20198;-80
2022/08/01 08:48:56;;;;;;;5.20;2.70;;;;;;;-145.69;61.16;70236.50;5072338;28;20230;-80
2022/08/01 08:51:26;;;;;;;4.63;2.67;;;;;;;-145.69;61.09;70248.44;5072579;28;20565;-83
2022/08/01 08:53:55;;;;;;;4.47;2.65;;;;;;;-145.69;61.66;70276.28;5072488;28;20206;-82
2022/08/01 08:56:25;;;;;;;4.28;3.00;;;;;;;-145.69;59.72;70240.47;5072416;28;20195;-82
2022/08/01 08:58:52;;;;;;;4.38;2.58;;;;;;;-145.69;61.18;70244.47;5071911;28;20198;-81
2022/08/01 09:01:19;;;;;;;3.90;2.58;;;;;;;-145.69;60.66;70260.38;5072690;28;20557;-82
2022/08/01 09:03:45;;;;;;;3.60;2.55;;;;;;;-145.69;63.64;70210.66;5072573;28;20206;-82
2022/08/01 09:06:13;;;;;;;5.22;2.97;;;;;;;-145.69;60.21;70208.66;5073439;28;20201;-80
2022/08/01 09:08:41;;;;;;;2.72;2.38;;;;;;;-145.69;56.09;70188.75;5072261;28;20283;-83
2022/08/01 09:11:07;;;;;;;3.70;2.60;;;;;;;-145.69;57.57;70097.25;5072590;28;20199;-81
2022/08/01 09:13:34;;;;;;;5.93;2.50;;;;;;;-145.69;54.32;70025.66;5072237;28;20203;-82
2022/08/01 09:16:00;;;;;;;3.90;2.08;;;;;;;-145.69;53.59;70061.44;5072278;28;20197;-82
2022/08/01 09:18:29;;;;;;;6.20;2.75;;;;;;;-145.69;54.47;69995.81;5072496;28;20204;-81
2022/08/01 09:21:16;;;;;;;3.75;2.22;;;;;;;-145.69;50.38;69946.09;5071822;28;20654;-81
2022/08/01 09:23:45;;;;;;;2.42;2.08;;;;;;;-145.69;50.39;69985.88;5072170;28;20264;-81
2022/08/01 09:26:13;;;;;;;8.30;2.30;;;;;;;-145.69;51.78;70013.72;5072210;28;20249;-83
2022/08/01 09:28:41;;;;;;;4.68;2.47;;;;;;;-145.69;51.28;70037.59;5072012;28;20234;-82
2022/08/01 09:31:12;;;;;;;4.43;2.70;;;;;;;-145.69;53.56;70043.56;5071831;28;20206;-80
2022/08/01 09:33:52;;;;;;;4.93;2.72;;;;;;;-145.69;53.80;70097.25;5072896;28;20226;-82
2022/08/01 09:36:21;;;;;;;3.53;2.67;;;;;;;-145.69;56.42;70152.97;5075501;28;20680;-84
2022/08/01 09:38:48;;;;;;;6.03;2.72;;;;;;;-145.69;56.41;70105.22;5075855;28;20293;-84
2022/08/01 09:41:15;;;;;;;4.13;2.90;;;;;;;-145.69;54.44;70085.31;5075723;28;20199;-84
2022/08/01 09:43:49;;;;;;;6.47;2.78;;;;;;;-145.69;56.35;70101.25;5075451;28;20194;-84
2022/08/01 09:46:15;;;;;;;4.30;2.90;;;;;;;-145.69;55.36;70093.28;5075715;28;20255;-85
2022/08/01 09:48:56;;;;;;;5.90;2.85;;;;;;;-145.69;58.99;70101.25;5075796;28;20226;-85
2022/08/01 09:51:30;;;;;;;6.15;2.92;;;;;;;-145.69;55.55;70099.25;5075371;28;20199;-84
2022/08/01 09:54:00;;;;;;;5.63;2.85;;;;;;;-145.69;56.54;70194.72;5075536;28;20255;-87
2022/08/01 09:56:27;;;;;;;2.83;2.50;;;;;;;-145.69;57.05;70210.66;5075284;28;20244;-84
2022/08/01 09:58:56;;;;;;;4.13;2.88;;;;;;;-145.69;57.15;70208.66;5075237;28;20218;-85
2022/08/01 10:01:23;;;;;;;3.53;2.45;;;;;;;-145.69;55.95;70178.81;5074898;28;20684;-84
2022/08/01 10:04:06;;;;;;;5.05;2.58;;;;;;;-145.69;53.96;70150.97;5068509;28;20468;-85
2022/08/01 10:06:35;;;;;;;3.22;2.22;;;;;;;-145.69;54.28;70099.25;5054953;28;20625;-84
2022/08/01 10:09:02;;;;;;;3.97;2.20;;;;;;;-145.69;51.88;70035.59;5054781;28;20227;-85
2022/08/01 10:11:31;;;;;;;5.35;2.75;;;;;;;-145.69;49.85;69987.84;5055014;28;20203;-86
2022/08/01 10:13:59;;;;;;;7.10;2.47;;;;;;;-145.69;48.77;69954.03;5055121;28;20195;-85
2022/08/01 10:16:31;;;;;;;3.08;2.13;;;;;;;-145.69;47.50;69954.03;5068288;28;20199;-81
2022/08/01 10:18:58;;;;;;;2.72;1.88;;;;;;;-145.69;49.10;69993.81;5074963;28;20210;-81
2022/08/01 10:21:27;;;;;;;2.58;2.25;;;;;;;-145.69;48.08;70005.75;5074583;28;20195;-82
2022/08/01 10:23:59;;;;;;;3.70;2.17;;;;;;;-145.69;49.58;69997.78;5074671;28;20606;-83
2022/08/01 10:26:27;;;;;;;5.45;2.30;;;;;;;-145.69;48.79;70009.72;5074885;28;20199;-82
2022/08/01 10:28:56;;;;;;;2.80;2.10;;;;;;;-145.69;48.12;69999.78;5074457;28;20233;-81
2022/08/01 10:31:22;;;;;;;6.82;2.30;;;;;;;-145.69;48.98;70007.75;5074738;28;20198;-81
2022/08/01 10:33:50;;;;;;;2.83;2.00;;;;;;;-145.69;47.34;69997.78;5074592;28;20558;-84
2022/08/01 10:36:19;;;;;;;3.92;2.42;;;;;;;-145.69;48.71;69977.91;5074745;28;20210;-80
2022/08/01 10:38:48;;;;;;;5.03;1.85;;;;;;;-145.69;46.47;70005.75;5073864;28;20203;-82
2022/08/01 10:41:18;;;;;;;4.00;2.03;;;;;;;-145.69;48.97;69977.91;5071930;28;20665;-83
2022/08/01 10:43:44;;;;;;;3.30;2.10;;;;;;;-145.69;45.83;69960.00;5074337;28;20203;-81
2022/08/01 10:46:12;;;;;;;4.72;2.40;;;;;;;-145.69;45.64;69981.88;5073221;28;20202;-82
2022/08/01 10:48:45;;;;;;;3.90;2.33;;;;;;;-145.69;47.60;69993.81;5073996;28;20237;-80
2022/08/01 10:51:13;;;;;;;4.68;1.98;;;;;;;-145.69;46.38;69989.84;5074014;28;20597;-82
2022/08/01 10:53:47;;;;;;;2.42;1.67;;;;;;;-145.69;46.51;69983.88;5074390;28;20202;-84
2022/08/01 10:56:14;;;;;;;2.72;1.80;;;;;;;-145.69;46.32;69989.84;5071757;28;20210;-84
2022/08/01 10:58:43;;;;;;;5.85;2.15;;;;;;;-145.69;45.98;69938.13;5073047;28;20205;-83
2022/08/01 11:01:21;;;;;;;3.55;1.90;;;;;;;-145.69;47.15;69784.97;5070824;28;20759;-83
2022/08/01 11:03:59;;;;;;;2.22;1.30;;;;;;;-145.69;41.24;69691.47;5077160;28;20194;-84
2022/08/01 11:06:43;;;;;;;2.65;1.60;;;;;;;-145.69;40.39;69711.38;5072438;28;20199;-84
2022/08/01 11:09:27;;;;;;;7.38;1.95;;;;;;;-145.69;42.19;69727.28;5073525;28;20226;-85
2022/08/01 11:12:04;;;;;;;2.60;1.60;;;;;;;-145.69;41.18;69771.03;5074187;28;20550;-86
2022/08/01 11:14:33;;;;;;;2.22;1.58;;;;;;;-145.69;40.10;69806.84;5067454;28;20187;-85
2022/08/01 11:17:32;;;;;;;1.80;1.42;;;;;;;-145.69;41.84;69862.53;5071599;28;20195;-84
2022/08/01 11:20:06;;;;;;;2.33;1.50;;;;;;;-145.69;41.90;69894.38;5069901;28;20190;-84